sensor_id;sensor_type;location;lat;lon;timestamp;P1;durP1;ratioP1;P2;durP2;ratioP2
39454;SDS011;25155;41.890;23.446;2024-03-02T00:01:45;10.00;;;7.97;;
39454;SDS011;25155;41.890;23.446;2024-03-02T00:04:12;10.77;;;7.95;;
39454;SDS011;25155;41.890;23.446;2024-03-02T00:06:41;9.70;;;6.75;;
39454;SDS011;25155;41.890;23.446;2024-03-02T00:09:09;12.13;;;8.65;;
39454;SDS011;25155;41.890;23.446;2024-03-02T00:11:39;12.02;;;8.05;;
39454;SDS011;25155;41.890;23.446;2024-03-02T00:14:06;8.27;;;6.70;;
39454;SDS011;25155;41.890;23.446;2024-03-02T00:16:33;8.93;;;6.45;;
39454;SDS011;25155;41.890;23.446;2024-03-02T00:19:02;8.30;;;6.20;;
39454;SDS011;25155;41.890;23.446;2024-03-02T00:21:30;9.02;;;6.30;;
39454;SDS011;25155;41.890;23.446;2024-03-02T00:23:59;8.55;;;6.32;;
39454;SDS011;25155;41.890;23.446;2024-03-02T00:26:28;9.93;;;7.47;;
39454;SDS011;25155;41.890;23.446;2024-03-02T00:28:56;9.23;;;6.60;;
39454;SDS011;25155;41.890;23.446;2024-03-02T00:31:24;9.27;;;6.30;;
39454;SDS011;25155;41.890;23.446;2024-03-02T00:33:51;7.50;;;6.03;;
39454;SDS011;25155;41.890;23.446;2024-03-02T00:36:22;10.90;;;7.45;;
39454;SDS011;25155;41.890;23.446;2024-03-02T00:41:20;11.50;;;8.23;;
39454;SDS011;25155;41.890;23.446;2024-03-02T00:43:53;9.95;;;6.90;;
39454;SDS011;25155;41.890;23.446;2024-03-02T00:46:24;8.85;;;6.68;;
39454;SDS011;25155;41.890;23.446;2024-03-02T00:48:53;7.93;;;5.95;;
39454;SDS011;25155;41.890;23.446;2024-03-02T00:51:21;9.27;;;6.35;;
39454;SDS011;25155;41.890;23.446;2024-03-02T00:53:49;8.63;;;6.00;;
39454;SDS011;25155;41.890;23.446;2024-03-02T00:56:17;8.63;;;5.80;;
39454;SDS011;25155;41.890;23.446;2024-03-02T00:58:47;6.75;;;5.43;;
39454;SDS011;25155;41.890;23.446;2024-03-02T01:01:15;6.57;;;4.78;;
39454;SDS011;25155;41.890;23.446;2024-03-02T01:03:42;7.30;;;5.38;;
39454;SDS011;25155;41.890;23.446;2024-03-02T01:06:10;7.03;;;5.20;;
39454;SDS011;25155;41.890;23.446;2024-03-02T01:08:37;7.75;;;5.47;;
39454;SDS011;25155;41.890;23.446;2024-03-02T01:11:04;7.38;;;4.15;;
39454;SDS011;25155;41.890;23.446;2024-03-02T01:13:31;5.75;;;3.90;;
39454;SDS011;25155;41.890;23.446;2024-03-02T01:16:00;6.95;;;4.53;;
39454;SDS011;25155;41.890;23.446;2024-03-02T01:18:28;5.97;;;4.18;;
39454;SDS011;25155;41.890;23.446;2024-03-02T01:20:56;6.57;;;4.63;;
39454;SDS011;25155;41.890;23.446;2024-03-02T01:23:23;5.68;;;4.13;;
39454;SDS011;25155;41.890;23.446;2024-03-02T01:25:51;4.68;;;3.40;;
39454;SDS011;25155;41.890;23.446;2024-03-02T01:28:19;4.38;;;3.00;;
39454;SDS011;25155;41.890;23.446;2024-03-02T01:30:47;5.35;;;3.42;;
39454;SDS011;25155;41.890;23.446;2024-03-02T01:33:16;4.50;;;3.08;;
39454;SDS011;25155;41.890;23.446;2024-03-02T01:35:43;9.15;;;5.15;;
39454;SDS011;25155;41.890;23.446;2024-03-02T01:38:10;6.28;;;4.57;;
39454;SDS011;25155;41.890;23.446;2024-03-02T01:40:37;7.35;;;4.28;;
39454;SDS011;25155;41.890;23.446;2024-03-02T01:43:05;6.50;;;4.30;;
39454;SDS011;25155;41.890;23.446;2024-03-02T01:45:33;8.30;;;5.10;;
39454;SDS011;25155;41.890;23.446;2024-03-02T01:48:03;9.68;;;6.25;;
39454;SDS011;25155;41.890;23.446;2024-03-02T01:50:32;10.02;;;6.40;;
39454;SDS011;25155;41.890;23.446;2024-03-02T01:53:00;11.85;;;7.50;;
39454;SDS011;25155;41.890;23.446;2024-03-02T01:55:28;12.50;;;7.63;;
39454;SDS011;25155;41.890;23.446;2024-03-02T01:57:55;10.55;;;7.18;;
39454;SDS011;25155;41.890;23.446;2024-03-02T02:00:23;10.88;;;7.43;;
39454;SDS011;25155;41.890;23.446;2024-03-02T02:02:51;12.00;;;7.97;;
39454;SDS011;25155;41.890;23.446;2024-03-02T02:05:19;9.98;;;7.18;;
39454;SDS011;25155;41.890;23.446;2024-03-02T02:07:48;9.93;;;6.00;;
39454;SDS011;25155;41.890;23.446;2024-03-02T02:10:15;7.03;;;5.03;;
39454;SDS011;25155;41.890;23.446;2024-03-02T02:12:43;10.30;;;6.78;;
39454;SDS011;25155;41.890;23.446;2024-03-02T02:15:23;10.02;;;6.30;;
39454;SDS011;25155;41.890;23.446;2024-03-02T02:17:51;7.03;;;4.85;;
39454;SDS011;25155;41.890;23.446;2024-03-02T02:20:19;6.97;;;4.70;;
39454;SDS011;25155;41.890;23.446;2024-03-02T02:22:57;9.20;;;6.85;;
39454;SDS011;25155;41.890;23.446;2024-03-02T02:25:25;8.07;;;6.07;;
39454;SDS011;25155;41.890;23.446;2024-03-02T02:27:52;7.28;;;5.45;;
39454;SDS011;25155;41.890;23.446;2024-03-02T02:30:20;6.65;;;4.65;;
39454;SDS011;25155;41.890;23.446;2024-03-02T02:32:48;5.78;;;3.78;;
39454;SDS011;25155;41.890;23.446;2024-03-02T02:35:16;4.90;;;3.38;;
39454;SDS011;25155;41.890;23.446;2024-03-02T02:37:43;4.05;;;2.90;;
39454;SDS011;25155;41.890;23.446;2024-03-02T02:40:13;5.00;;;3.22;;
39454;SDS011;25155;41.890;23.446;2024-03-02T02:42:41;5.20;;;3.38;;
39454;SDS011;25155;41.890;23.446;2024-03-02T02:45:08;4.72;;;3.22;;
39454;SDS011;25155;41.890;23.446;2024-03-02T02:47:36;5.35;;;3.33;;
39454;SDS011;25155;41.890;23.446;2024-03-02T02:50:03;4.72;;;3.15;;
39454;SDS011;25155;41.890;23.446;2024-03-02T02:52:33;4.90;;;3.05;;
39454;SDS011;25155;41.890;23.446;2024-03-02T02:55:05;5.75;;;3.72;;
39454;SDS011;25155;41.890;23.446;2024-03-02T03:00:05;6.00;;;4.07;;
39454;SDS011;25155;41.890;23.446;2024-03-02T03:02:39;7.78;;;5.18;;
39454;SDS011;25155;41.890;23.446;2024-03-02T03:05:07;5.80;;;4.20;;
39454;SDS011;25155;41.890;23.446;2024-03-02T03:07:35;5.55;;;3.83;;
39454;SDS011;25155;41.890;23.446;2024-03-02T03:10:03;5.15;;;3.55;;
39454;SDS011;25155;41.890;23.446;2024-03-02T03:12:32;4.90;;;3.35;;
39454;SDS011;25155;41.890;23.446;2024-03-02T03:15:01;5.03;;;3.50;;
39454;SDS011;25155;41.890;23.446;2024-03-02T03:17:30;5.30;;;3.70;;
39454;SDS011;25155;41.890;23.446;2024-03-02T03:19:57;5.65;;;3.63;;
39454;SDS011;25155;41.890;23.446;2024-03-02T03:22:24;5.70;;;3.63;;
39454;SDS011;25155;41.890;23.446;2024-03-02T03:24:51;4.22;;;3.08;;
39454;SDS011;25155;41.890;23.446;2024-03-02T03:27:19;5.20;;;3.38;;
39454;SDS011;25155;41.890;23.446;2024-03-02T03:29:46;4.50;;;2.72;;
39454;SDS011;25155;41.890;23.446;2024-03-02T03:32:14;4.53;;;3.33;;
39454;SDS011;25155;41.890;23.446;2024-03-02T03:34:42;4.20;;;2.83;;
39454;SDS011;25155;41.890;23.446;2024-03-02T03:37:09;5.03;;;3.38;;
39454;SDS011;25155;41.890;23.446;2024-03-02T03:39:36;4.30;;;3.13;;
39454;SDS011;25155;41.890;23.446;2024-03-02T03:42:04;5.07;;;2.80;;
39454;SDS011;25155;41.890;23.446;2024-03-02T03:44:31;4.68;;;3.00;;
39454;SDS011;25155;41.890;23.446;2024-03-02T03:46:59;4.15;;;2.90;;
39454;SDS011;25155;41.890;23.446;2024-03-02T03:49:29;4.15;;;2.80;;
39454;SDS011;25155;41.890;23.446;2024-03-02T03:51:56;3.80;;;2.70;;
39454;SDS011;25155;41.890;23.446;2024-03-02T03:54:23;5.68;;;3.03;;
39454;SDS011;25155;41.890;23.446;2024-03-02T03:56:51;4.60;;;2.90;;
39454;SDS011;25155;41.890;23.446;2024-03-02T03:59:18;5.18;;;3.40;;
39454;SDS011;25155;41.890;23.446;2024-03-02T04:01:45;5.15;;;3.10;;
39454;SDS011;25155;41.890;23.446;2024-03-02T04:04:12;4.30;;;2.97;;
39454;SDS011;25155;41.890;23.446;2024-03-02T04:06:40;3.90;;;2.70;;
39454;SDS011;25155;41.890;23.446;2024-03-02T04:09:08;5.95;;;2.92;;
39454;SDS011;25155;41.890;23.446;2024-03-02T04:11:35;5.53;;;3.88;;
39454;SDS011;25155;41.890;23.446;2024-03-02T04:14:02;5.53;;;4.10;;
39454;SDS011;25155;41.890;23.446;2024-03-02T04:16:34;5.25;;;3.78;;
39454;SDS011;25155;41.890;23.446;2024-03-02T04:19:01;4.88;;;3.42;;
39454;SDS011;25155;41.890;23.446;2024-03-02T04:21:29;6.75;;;4.45;;
39454;SDS011;25155;41.890;23.446;2024-03-02T04:23:58;5.10;;;3.83;;
39454;SDS011;25155;41.890;23.446;2024-03-02T04:26:25;4.60;;;3.33;;
39454;SDS011;25155;41.890;23.446;2024-03-02T04:28:53;5.60;;;3.72;;
39454;SDS011;25155;41.890;23.446;2024-03-02T04:31:20;4.03;;;2.88;;
39454;SDS011;25155;41.890;23.446;2024-03-02T04:33:47;4.07;;;2.80;;
39454;SDS011;25155;41.890;23.446;2024-03-02T04:36:15;4.30;;;2.72;;
39454;SDS011;25155;41.890;23.446;2024-03-02T04:38:42;3.75;;;2.72;;
39454;SDS011;25155;41.890;23.446;2024-03-02T04:41:11;4.80;;;3.00;;
39454;SDS011;25155;41.890;23.446;2024-03-02T04:43:38;4.57;;;2.70;;
39454;SDS011;25155;41.890;23.446;2024-03-02T04:46:05;4.03;;;2.70;;
39454;SDS011;25155;41.890;23.446;2024-03-02T04:48:33;4.05;;;2.88;;
39454;SDS011;25155;41.890;23.446;2024-03-02T04:51:01;5.35;;;3.50;;
39454;SDS011;25155;41.890;23.446;2024-03-02T04:53:28;6.18;;;3.30;;
39454;SDS011;25155;41.890;23.446;2024-03-02T04:55:55;4.70;;;3.20;;
39454;SDS011;25155;41.890;23.446;2024-03-02T04:58:53;4.45;;;3.30;;
39454;SDS011;25155;41.890;23.446;2024-03-02T05:01:20;4.93;;;3.40;;
39454;SDS011;25155;41.890;23.446;2024-03-02T05:03:48;4.57;;;3.28;;
39454;SDS011;25155;41.890;23.446;2024-03-02T05:06:16;4.93;;;3.30;;
39454;SDS011;25155;41.890;23.446;2024-03-02T05:08:43;5.10;;;3.40;;
39454;SDS011;25155;41.890;23.446;2024-03-02T05:11:11;4.35;;;3.10;;
39454;SDS011;25155;41.890;23.446;2024-03-02T05:13:57;4.25;;;2.83;;
39454;SDS011;25155;41.890;23.446;2024-03-02T05:16:24;4.57;;;2.95;;
39454;SDS011;25155;41.890;23.446;2024-03-02T05:18:50;4.35;;;2.75;;
39454;SDS011;25155;41.890;23.446;2024-03-02T05:21:18;3.50;;;2.38;;
39454;SDS011;25155;41.890;23.446;2024-03-02T05:23:45;3.40;;;2.25;;
39454;SDS011;25155;41.890;23.446;2024-03-02T05:26:12;3.33;;;2.40;;
39454;SDS011;25155;41.890;23.446;2024-03-02T05:28:39;3.10;;;2.10;;
39454;SDS011;25155;41.890;23.446;2024-03-02T05:31:09;3.08;;;2.10;;
39454;SDS011;25155;41.890;23.446;2024-03-02T05:33:37;3.28;;;2.17;;
39454;SDS011;25155;41.890;23.446;2024-03-02T05:36:04;2.75;;;2.00;;
39454;SDS011;25155;41.890;23.446;2024-03-02T05:38:32;2.88;;;2.00;;
39454;SDS011;25155;41.890;23.446;2024-03-02T05:40:59;2.88;;;1.85;;
39454;SDS011;25155;41.890;23.446;2024-03-02T05:43:26;2.63;;;1.90;;
39454;SDS011;25155;41.890;23.446;2024-03-02T05:45:54;2.70;;;1.90;;
39454;SDS011;25155;41.890;23.446;2024-03-02T05:48:23;2.97;;;2.00;;
39454;SDS011;25155;41.890;23.446;2024-03-02T05:50:50;2.97;;;2.00;;
39454;SDS011;25155;41.890;23.446;2024-03-02T05:53:17;3.25;;;2.13;;
39454;SDS011;25155;41.890;23.446;2024-03-02T05:55:45;3.40;;;2.30;;
39454;SDS011;25155;41.890;23.446;2024-03-02T05:58:12;4.18;;;2.58;;
39454;SDS011;25155;41.890;23.446;2024-03-02T06:00:53;3.75;;;2.58;;
39454;SDS011;25155;41.890;23.446;2024-03-02T06:03:20;3.63;;;2.58;;
39454;SDS011;25155;41.890;23.446;2024-03-02T06:05:49;3.50;;;2.50;;
39454;SDS011;25155;41.890;23.446;2024-03-02T06:08:17;5.35;;;4.00;;
39454;SDS011;25155;41.890;23.446;2024-03-02T06:10:44;7.13;;;3.70;;
39454;SDS011;25155;41.890;23.446;2024-03-02T06:13:12;5.38;;;3.75;;
39454;SDS011;25155;41.890;23.446;2024-03-02T06:15:40;4.43;;;3.28;;
39454;SDS011;25155;41.890;23.446;2024-03-02T06:18:08;5.70;;;3.90;;
39454;SDS011;25155;41.890;23.446;2024-03-02T06:20:39;5.80;;;3.88;;
39454;SDS011;25155;41.890;23.446;2024-03-02T06:25:34;4.07;;;3.00;;
39454;SDS011;25155;41.890;23.446;2024-03-02T06:28:01;5.43;;;3.50;;
39454;SDS011;25155;41.890;23.446;2024-03-02T06:30:29;4.82;;;3.40;;
39454;SDS011;25155;41.890;23.446;2024-03-02T06:32:57;4.10;;;2.92;;
39454;SDS011;25155;41.890;23.446;2024-03-02T06:35:24;3.88;;;2.70;;
39454;SDS011;25155;41.890;23.446;2024-03-02T06:37:53;3.53;;;2.33;;
39454;SDS011;25155;41.890;23.446;2024-03-02T06:40:20;4.20;;;2.90;;
39454;SDS011;25155;41.890;23.446;2024-03-02T06:42:47;4.00;;;2.95;;
39454;SDS011;25155;41.890;23.446;2024-03-02T06:45:14;5.25;;;3.00;;
39454;SDS011;25155;41.890;23.446;2024-03-02T06:47:41;4.68;;;3.28;;
39454;SDS011;25155;41.890;23.446;2024-03-02T06:50:10;4.75;;;3.10;;
39454;SDS011;25155;41.890;23.446;2024-03-02T06:52:37;4.65;;;3.42;;
39454;SDS011;25155;41.890;23.446;2024-03-02T06:55:07;4.32;;;3.00;;
39454;SDS011;25155;41.890;23.446;2024-03-02T06:57:34;5.35;;;3.75;;
39454;SDS011;25155;41.890;23.446;2024-03-02T07:00:01;6.47;;;4.60;;
39454;SDS011;25155;41.890;23.446;2024-03-02T07:02:30;8.43;;;6.22;;
39454;SDS011;25155;41.890;23.446;2024-03-02T07:04:57;7.90;;;6.03;;
39454;SDS011;25155;41.890;23.446;2024-03-02T07:07:25;15.45;;;11.35;;
39454;SDS011;25155;41.890;23.446;2024-03-02T07:09:52;18.50;;;14.00;;
39454;SDS011;25155;41.890;23.446;2024-03-02T07:12:21;32.92;;;23.77;;
39454;SDS011;25155;41.890;23.446;2024-03-02T07:14:48;42.83;;;31.25;;
39454;SDS011;25155;41.890;23.446;2024-03-02T07:17:36;45.47;;;32.08;;
39454;SDS011;25155;41.890;23.446;2024-03-02T07:20:04;56.55;;;41.92;;
39454;SDS011;25155;41.890;23.446;2024-03-02T07:22:32;50.95;;;37.67;;
39454;SDS011;25155;41.890;23.446;2024-03-02T07:25:00;42.60;;;31.77;;
39454;SDS011;25155;41.890;23.446;2024-03-02T07:27:29;46.92;;;34.03;;
39454;SDS011;25155;41.890;23.446;2024-03-02T07:29:58;39.55;;;28.58;;
39454;SDS011;25155;41.890;23.446;2024-03-02T07:32:25;42.63;;;31.23;;
39454;SDS011;25155;41.890;23.446;2024-03-02T07:34:52;40.33;;;29.20;;
39454;SDS011;25155;41.890;23.446;2024-03-02T07:37:21;36.55;;;28.25;;
39454;SDS011;25155;41.890;23.446;2024-03-02T07:39:48;30.00;;;22.83;;
39454;SDS011;25155;41.890;23.446;2024-03-02T07:42:15;32.75;;;24.40;;
39454;SDS011;25155;41.890;23.446;2024-03-02T07:44:45;30.35;;;22.35;;
39454;SDS011;25155;41.890;23.446;2024-03-02T07:47:12;27.33;;;21.13;;
39454;SDS011;25155;41.890;23.446;2024-03-02T07:49:40;24.20;;;18.48;;
39454;SDS011;25155;41.890;23.446;2024-03-02T07:52:08;18.60;;;13.10;;
39454;SDS011;25155;41.890;23.446;2024-03-02T07:54:35;14.52;;;11.52;;
39454;SDS011;25155;41.890;23.446;2024-03-02T07:57:03;14.80;;;11.68;;
39454;SDS011;25155;41.890;23.446;2024-03-02T07:59:30;13.57;;;10.38;;
39454;SDS011;25155;41.890;23.446;2024-03-02T08:01:59;22.38;;;17.33;;
39454;SDS011;25155;41.890;23.446;2024-03-02T08:04:26;26.63;;;21.42;;
39454;SDS011;25155;41.890;23.446;2024-03-02T08:06:54;25.60;;;21.10;;
39454;SDS011;25155;41.890;23.446;2024-03-02T08:09:21;25.98;;;19.95;;
39454;SDS011;25155;41.890;23.446;2024-03-02T08:11:49;27.58;;;22.58;;
39454;SDS011;25155;41.890;23.446;2024-03-02T08:14:16;27.35;;;20.98;;
39454;SDS011;25155;41.890;23.446;2024-03-02T08:16:43;21.30;;;16.40;;
39454;SDS011;25155;41.890;23.446;2024-03-02T08:19:12;19.17;;;13.75;;
39454;SDS011;25155;41.890;23.446;2024-03-02T08:21:39;16.20;;;12.80;;
39454;SDS011;25155;41.890;23.446;2024-03-02T08:24:06;17.50;;;13.82;;
39454;SDS011;25155;41.890;23.446;2024-03-02T08:26:34;21.63;;;17.85;;
39454;SDS011;25155;41.890;23.446;2024-03-02T08:29:01;17.60;;;14.68;;
39454;SDS011;25155;41.890;23.446;2024-03-02T08:31:29;18.08;;;14.68;;
39454;SDS011;25155;41.890;23.446;2024-03-02T08:33:56;27.13;;;20.98;;
39454;SDS011;25155;41.890;23.446;2024-03-02T08:36:26;26.05;;;19.40;;
39454;SDS011;25155;41.890;23.446;2024-03-02T08:38:53;22.02;;;18.73;;
39454;SDS011;25155;41.890;23.446;2024-03-02T08:41:20;20.30;;;15.77;;
39454;SDS011;25155;41.890;23.446;2024-03-02T08:43:49;23.67;;;19.42;;
39454;SDS011;25155;41.890;23.446;2024-03-02T08:46:16;25.38;;;20.35;;
39454;SDS011;25155;41.890;23.446;2024-03-02T08:48:43;19.75;;;16.00;;
39454;SDS011;25155;41.890;23.446;2024-03-02T08:51:11;17.65;;;14.73;;
39454;SDS011;25155;41.890;23.446;2024-03-02T08:53:40;16.27;;;12.60;;
39454;SDS011;25155;41.890;23.446;2024-03-02T08:56:08;16.40;;;13.52;;
39454;SDS011;25155;41.890;23.446;2024-03-02T08:58:35;14.75;;;12.07;;
39454;SDS011;25155;41.890;23.446;2024-03-02T09:01:02;12.38;;;10.02;;
39454;SDS011;25155;41.890;23.446;2024-03-02T09:03:32;13.27;;;9.88;;
39454;SDS011;25155;41.890;23.446;2024-03-02T09:05:59;17.08;;;14.10;;
39454;SDS011;25155;41.890;23.446;2024-03-02T09:08:26;12.70;;;9.45;;
39454;SDS011;25155;41.890;23.446;2024-03-02T09:10:55;13.18;;;9.73;;
39454;SDS011;25155;41.890;23.446;2024-03-02T09:13:23;11.77;;;7.82;;
39454;SDS011;25155;41.890;23.446;2024-03-02T09:15:51;12.85;;;10.23;;
39454;SDS011;25155;41.890;23.446;2024-03-02T09:18:18;13.35;;;10.35;;
39454;SDS011;25155;41.890;23.446;2024-03-02T09:20:46;12.63;;;9.30;;
39454;SDS011;25155;41.890;23.446;2024-03-02T09:23:13;12.02;;;9.50;;
39454;SDS011;25155;41.890;23.446;2024-03-02T09:25:41;12.25;;;8.93;;
39454;SDS011;25155;41.890;23.446;2024-03-02T09:28:09;9.63;;;7.43;;
39454;SDS011;25155;41.890;23.446;2024-03-02T09:30:37;10.57;;;7.70;;
39454;SDS011;25155;41.890;23.446;2024-03-02T09:33:04;9.10;;;6.93;;
39454;SDS011;25155;41.890;23.446;2024-03-02T09:35:32;14.85;;;11.40;;
39454;SDS011;25155;41.890;23.446;2024-03-02T09:37:59;12.80;;;9.80;;
39454;SDS011;25155;41.890;23.446;2024-03-02T09:40:26;14.77;;;10.85;;
39454;SDS011;25155;41.890;23.446;2024-03-02T09:42:53;13.38;;;10.02;;
39454;SDS011;25155;41.890;23.446;2024-03-02T09:45:24;13.38;;;9.85;;
39454;SDS011;25155;41.890;23.446;2024-03-02T09:47:51;11.38;;;8.60;;
39454;SDS011;25155;41.890;23.446;2024-03-02T09:50:19;12.40;;;9.85;;
39454;SDS011;25155;41.890;23.446;2024-03-02T09:52:48;13.48;;;10.13;;
39454;SDS011;25155;41.890;23.446;2024-03-02T09:55:16;14.93;;;10.50;;
39454;SDS011;25155;41.890;23.446;2024-03-02T09:57:44;14.70;;;11.35;;
39454;SDS011;25155;41.890;23.446;2024-03-02T10:00:14;13.20;;;10.05;;
39454;SDS011;25155;41.890;23.446;2024-03-02T10:02:43;14.02;;;10.48;;
39454;SDS011;25155;41.890;23.446;2024-03-02T10:05:23;13.25;;;9.60;;
39454;SDS011;25155;41.890;23.446;2024-03-02T10:07:56;11.23;;;8.40;;
39454;SDS011;25155;41.890;23.446;2024-03-02T10:10:26;10.27;;;7.60;;
39454;SDS011;25155;41.890;23.446;2024-03-02T10:13:05;7.45;;;5.35;;
39454;SDS011;25155;41.890;23.446;2024-03-02T10:15:34;4.40;;;3.20;;
39454;SDS011;25155;41.890;23.446;2024-03-02T10:18:04;3.40;;;2.50;;
39454;SDS011;25155;41.890;23.446;2024-03-02T10:20:32;3.80;;;2.65;;
39454;SDS011;25155;41.890;23.446;2024-03-02T10:23:09;3.38;;;2.50;;
39454;SDS011;25155;41.890;23.446;2024-03-02T10:25:37;4.10;;;2.80;;
39454;SDS011;25155;41.890;23.446;2024-03-02T10:28:04;6.00;;;4.20;;
39454;SDS011;25155;41.890;23.446;2024-03-02T10:30:32;7.10;;;5.00;;
39454;SDS011;25155;41.890;23.446;2024-03-02T10:33:00;10.52;;;7.32;;
39454;SDS011;25155;41.890;23.446;2024-03-02T10:35:29;8.65;;;6.55;;
39454;SDS011;25155;41.890;23.446;2024-03-02T10:38:01;8.55;;;5.78;;
39454;SDS011;25155;41.890;23.446;2024-03-02T10:40:31;8.50;;;5.78;;
39454;SDS011;25155;41.890;23.446;2024-03-02T10:42:59;7.55;;;5.47;;
39454;SDS011;25155;41.890;23.446;2024-03-02T10:45:28;10.55;;;6.95;;
39454;SDS011;25155;41.890;23.446;2024-03-02T10:47:56;8.77;;;6.07;;
39454;SDS011;25155;41.890;23.446;2024-03-02T10:50:25;8.45;;;6.03;;
39454;SDS011;25155;41.890;23.446;2024-03-02T10:52:54;9.63;;;7.03;;
39454;SDS011;25155;41.890;23.446;2024-03-02T10:55:21;4.88;;;3.65;;
39454;SDS011;25155;41.890;23.446;2024-03-02T10:57:50;3.97;;;2.60;;
39454;SDS011;25155;41.890;23.446;2024-03-02T11:00:19;5.00;;;3.42;;
39454;SDS011;25155;41.890;23.446;2024-03-02T11:02:51;6.93;;;4.90;;
39454;SDS011;25155;41.890;23.446;2024-03-02T11:05:23;5.55;;;2.83;;
39454;SDS011;25155;41.890;23.446;2024-03-02T11:07:56;3.20;;;2.40;;
39454;SDS011;25155;41.890;23.446;2024-03-02T11:10:31;3.17;;;2.35;;
39454;SDS011;25155;41.890;23.446;2024-03-02T11:13:04;4.82;;;2.72;;
39454;SDS011;25155;41.890;23.446;2024-03-02T11:15:33;4.97;;;2.42;;
39454;SDS011;25155;41.890;23.446;2024-03-02T11:18:03;4.57;;;2.35;;
39454;SDS011;25155;41.890;23.446;2024-03-02T11:23:06;3.38;;;2.40;;
39454;SDS011;25155;41.890;23.446;2024-03-02T11:25:34;4.10;;;2.30;;
39454;SDS011;25155;41.890;23.446;2024-03-02T11:28:03;4.07;;;2.45;;
39454;SDS011;25155;41.890;23.446;2024-03-02T11:30:50;4.10;;;2.42;;
39454;SDS011;25155;41.890;23.446;2024-03-02T11:33:24;4.05;;;2.42;;
39454;SDS011;25155;41.890;23.446;2024-03-02T11:35:56;4.32;;;2.40;;
39454;SDS011;25155;41.890;23.446;2024-03-02T11:38:31;3.30;;;2.17;;
39454;SDS011;25155;41.890;23.446;2024-03-02T11:40:59;4.20;;;2.40;;
39454;SDS011;25155;41.890;23.446;2024-03-02T11:43:29;3.60;;;2.13;;
39454;SDS011;25155;41.890;23.446;2024-03-02T11:45:59;2.78;;;1.90;;
39454;SDS011;25155;41.890;23.446;2024-03-02T11:48:29;2.83;;;1.83;;
39454;SDS011;25155;41.890;23.446;2024-03-02T11:50:57;3.85;;;1.92;;
39454;SDS011;25155;41.890;23.446;2024-03-02T11:53:26;3.03;;;2.13;;
39454;SDS011;25155;41.890;23.446;2024-03-02T11:55:56;3.60;;;2.20;;
39454;SDS011;25155;41.890;23.446;2024-03-02T11:58:27;3.55;;;2.10;;
39454;SDS011;25155;41.890;23.446;2024-03-02T12:00:54;2.15;;;1.70;;
39454;SDS011;25155;41.890;23.446;2024-03-02T12:03:23;5.25;;;2.42;;
39454;SDS011;25155;41.890;23.446;2024-03-02T12:05:53;1.98;;;1.67;;
39454;SDS011;25155;41.890;23.446;2024-03-02T12:08:21;3.05;;;2.10;;
39454;SDS011;25155;41.890;23.446;2024-03-02T12:11:00;2.95;;;2.00;;
39454;SDS011;25155;41.890;23.446;2024-03-02T12:13:28;4.30;;;2.30;;
39454;SDS011;25155;41.890;23.446;2024-03-02T12:15:56;3.33;;;2.17;;
39454;SDS011;25155;41.890;23.446;2024-03-02T12:18:23;3.00;;;2.00;;
39454;SDS011;25155;41.890;23.446;2024-03-02T12:20:51;3.88;;;2.13;;
39454;SDS011;25155;41.890;23.446;2024-03-02T12:23:22;4.93;;;2.50;;
39454;SDS011;25155;41.890;23.446;2024-03-02T12:25:50;4.60;;;2.33;;
39454;SDS011;25155;41.890;23.446;2024-03-02T12:28:19;4.05;;;2.30;;
39454;SDS011;25155;41.890;23.446;2024-03-02T12:30:46;3.60;;;2.05;;
39454;SDS011;25155;41.890;23.446;2024-03-02T12:33:15;4.18;;;2.38;;
39454;SDS011;25155;41.890;23.446;2024-03-02T12:35:44;5.28;;;2.47;;
39454;SDS011;25155;41.890;23.446;2024-03-02T12:38:11;4.00;;;2.33;;
39454;SDS011;25155;41.890;23.446;2024-03-02T12:40:39;5.03;;;2.55;;
39454;SDS011;25155;41.890;23.446;2024-03-02T12:43:06;3.85;;;2.42;;
39454;SDS011;25155;41.890;23.446;2024-03-02T12:45:35;4.25;;;2.50;;
39454;SDS011;25155;41.890;23.446;2024-03-02T12:48:04;4.68;;;2.47;;
39454;SDS011;25155;41.890;23.446;2024-03-02T12:50:32;3.63;;;2.30;;
39454;SDS011;25155;41.890;23.446;2024-03-02T12:53:00;3.70;;;2.30;;
39454;SDS011;25155;41.890;23.446;2024-03-02T12:55:28;6.03;;;2.40;;
39454;SDS011;25155;41.890;23.446;2024-03-02T12:57:55;4.25;;;2.45;;
39454;SDS011;25155;41.890;23.446;2024-03-02T13:00:24;7.68;;;2.60;;
39454;SDS011;25155;41.890;23.446;2024-03-02T13:02:53;8.02;;;3.00;;
39454;SDS011;25155;41.890;23.446;2024-03-02T13:05:29;5.53;;;3.00;;
39454;SDS011;25155;41.890;23.446;2024-03-02T13:07:57;6.78;;;2.75;;
39454;SDS011;25155;41.890;23.446;2024-03-02T13:10:28;6.10;;;2.67;;
39454;SDS011;25155;41.890;23.446;2024-03-02T13:12:55;5.78;;;2.80;;
39454;SDS011;25155;41.890;23.446;2024-03-02T13:15:23;4.50;;;2.65;;
39454;SDS011;25155;41.890;23.446;2024-03-02T13:17:54;6.43;;;3.08;;
39454;SDS011;25155;41.890;23.446;2024-03-02T13:20:29;5.28;;;2.75;;
39454;SDS011;25155;41.890;23.446;2024-03-02T13:22:58;4.80;;;2.55;;
39454;SDS011;25155;41.890;23.446;2024-03-02T13:25:25;5.28;;;2.80;;
39454;SDS011;25155;41.890;23.446;2024-03-02T13:27:52;4.00;;;2.45;;
39454;SDS011;25155;41.890;23.446;2024-03-02T13:30:20;4.30;;;2.50;;
39454;SDS011;25155;41.890;23.446;2024-03-02T13:32:47;4.72;;;3.00;;
39454;SDS011;25155;41.890;23.446;2024-03-02T13:35:16;4.82;;;2.88;;
39454;SDS011;25155;41.890;23.446;2024-03-02T13:37:44;7.13;;;2.67;;
39454;SDS011;25155;41.890;23.446;2024-03-02T13:40:11;5.70;;;3.00;;
39454;SDS011;25155;41.890;23.446;2024-03-02T13:42:43;5.93;;;3.10;;
39454;SDS011;25155;41.890;23.446;2024-03-02T13:45:12;6.28;;;2.70;;
39454;SDS011;25155;41.890;23.446;2024-03-02T13:47:40;5.38;;;2.78;;
39454;SDS011;25155;41.890;23.446;2024-03-02T13:50:08;4.95;;;2.85;;
39454;SDS011;25155;41.890;23.446;2024-03-02T13:52:37;7.68;;;3.10;;
39454;SDS011;25155;41.890;23.446;2024-03-02T13:55:05;4.63;;;2.53;;
39454;SDS011;25155;41.890;23.446;2024-03-02T13:57:34;4.18;;;2.70;;
39454;SDS011;25155;41.890;23.446;2024-03-02T14:00:02;7.32;;;2.95;;
39454;SDS011;25155;41.890;23.446;2024-03-02T14:02:35;4.30;;;2.55;;
39454;SDS011;25155;41.890;23.446;2024-03-02T14:05:03;5.25;;;2.63;;
39454;SDS011;25155;41.890;23.446;2024-03-02T14:07:31;7.40;;;2.83;;
39454;SDS011;25155;41.890;23.446;2024-03-02T14:10:00;5.53;;;2.97;;
39454;SDS011;25155;41.890;23.446;2024-03-02T14:12:27;5.55;;;2.88;;
39454;SDS011;25155;41.890;23.446;2024-03-02T14:14:55;5.80;;;3.08;;
39454;SDS011;25155;41.890;23.446;2024-03-02T14:17:23;6.65;;;2.83;;
39454;SDS011;25155;41.890;23.446;2024-03-02T14:19:50;4.60;;;2.60;;
39454;SDS011;25155;41.890;23.446;2024-03-02T14:22:19;7.00;;;3.15;;
39454;SDS011;25155;41.890;23.446;2024-03-02T14:24:46;4.78;;;2.70;;
39454;SDS011;25155;41.890;23.446;2024-03-02T14:27:17;5.85;;;2.90;;
39454;SDS011;25155;41.890;23.446;2024-03-02T14:29:44;6.45;;;3.20;;
39454;SDS011;25155;41.890;23.446;2024-03-02T14:32:11;5.60;;;3.00;;
39454;SDS011;25155;41.890;23.446;2024-03-02T14:34:38;5.22;;;3.10;;
39454;SDS011;25155;41.890;23.446;2024-03-02T14:37:05;4.78;;;2.92;;
39454;SDS011;25155;41.890;23.446;2024-03-02T14:39:33;5.95;;;2.70;;
39454;SDS011;25155;41.890;23.446;2024-03-02T14:42:01;4.53;;;2.75;;
39454;SDS011;25155;41.890;23.446;2024-03-02T14:44:30;7.88;;;2.97;;
39454;SDS011;25155;41.890;23.446;2024-03-02T14:46:58;4.95;;;2.65;;